createdAt,value
2019-06-10T00:00:21.814Z,19.99
2019-06-10T00:01:21.374Z,19.94
2019-06-10T00:02:21.382Z,19.92
2019-06-10T00:03:20.757Z,19.83
2019-06-10T00:04:22.142Z,19.81
2019-06-10T00:05:21.639Z,19.92
2019-06-10T00:06:21.002Z,19.94
2019-06-10T00:07:21.077Z,19.88
2019-06-10T00:08:20.902Z,19.88
2019-06-10T00:09:21.140Z,19.91
2019-06-10T00:10:21.454Z,19.99
2019-06-10T00:11:21.213Z,19.94
2019-06-10T00:12:20.983Z,20.01
2019-06-10T00:13:20.975Z,19.76
2019-06-10T00:14:21.213Z,19.76
2019-06-10T00:15:21.335Z,19.78
2019-06-10T00:16:20.862Z,19.76
2019-06-10T00:17:21.360Z,19.73
2019-06-10T00:18:35.524Z,19.76
2019-06-10T00:19:21.690Z,19.76
2019-06-10T00:20:21.477Z,19.84
2019-06-10T00:21:21.585Z,19.78
2019-06-10T00:22:21.425Z,19.66
2019-06-10T00:23:21.264Z,19.71
2019-06-10T00:24:21.013Z,19.71
2019-06-10T00:25:21.010Z,19.73
2019-06-10T00:26:21.459Z,19.63
2019-06-10T00:27:21.450Z,19.65
2019-06-10T00:28:18.917Z,19.68
2019-06-10T00:29:18.845Z,19.66
2019-06-10T00:30:20.814Z,19.73
2019-06-10T00:31:20.770Z,19.74
2019-06-10T00:32:21.304Z,19.83
2019-06-10T00:33:18.577Z,19.87
2019-06-10T00:34:20.668Z,19.96
2019-06-10T00:35:20.955Z,19.96
2019-06-10T00:36:18.371Z,19.87
2019-06-10T00:37:20.549Z,19.83
2019-06-10T00:38:18.238Z,19.88
2019-06-10T00:39:18.164Z,19.86
2019-06-10T00:40:18.115Z,19.84
2019-06-10T00:41:18.037Z,19.80
2019-06-10T00:42:17.965Z,19.76
2019-06-10T00:43:17.897Z,19.83
2019-06-10T00:44:17.835Z,19.69
2019-06-10T00:45:18.116Z,19.76
2019-06-10T00:46:17.693Z,19.86
2019-06-10T00:47:17.628Z,19.81
2019-06-10T00:48:28.299Z,19.76
2019-06-10T00:49:17.488Z,19.69
2019-06-10T00:50:17.421Z,19.63
2019-06-10T00:51:17.353Z,19.65
2019-06-10T00:52:17.287Z,19.71
2019-06-10T00:53:17.238Z,19.76
2019-06-10T00:54:17.149Z,19.80
2019-06-10T00:55:17.081Z,19.76
2019-06-10T00:56:17.013Z,19.62
2019-06-10T00:57:16.948Z,19.69
2019-06-10T00:58:16.873Z,19.76
2019-06-10T00:59:16.820Z,19.76
2019-06-10T01:00:25.185Z,19.66
2019-06-10T01:01:16.679Z,19.66
2019-06-10T01:02:16.601Z,19.69
2019-06-10T01:03:16.540Z,19.51
2019-06-10T01:04:16.676Z,19.55
2019-06-10T01:05:16.452Z,19.58
2019-06-10T01:06:16.337Z,19.59
2019-06-10T01:07:16.264Z,19.59
2019-06-10T01:08:16.198Z,19.56
2019-06-10T01:09:16.127Z,19.61
2019-06-10T01:10:16.064Z,19.65
2019-06-10T01:11:21.285Z,19.50
2019-06-10T01:12:15.925Z,19.51
2019-06-10T01:13:15.861Z,19.48
2019-06-10T01:14:15.790Z,19.39
2019-06-10T01:15:15.719Z,19.40
2019-06-10T01:16:15.706Z,19.21
2019-06-10T01:17:15.687Z,19.26
2019-06-10T01:18:33.602Z,19.23
2019-06-10T01:19:15.970Z,19.25
2019-06-10T01:20:16.110Z,19.25
2019-06-10T01:21:15.588Z,19.25
2019-06-10T01:22:15.984Z,19.25
2019-06-10T01:23:15.700Z,19.26
2019-06-10T01:24:15.107Z,19.21
2019-06-10T01:25:15.133Z,19.08
2019-06-10T01:26:16.430Z,19.14
2019-06-10T01:27:15.169Z,19.13
2019-06-10T01:28:16.869Z,19.13
2019-06-10T01:29:15.598Z,19.11
2019-06-10T01:30:20.622Z,19.02
2019-06-10T01:31:20.476Z,18.95
2019-06-10T01:32:15.047Z,19.07
2019-06-10T01:33:16.046Z,19.19
2019-06-10T01:34:15.156Z,19.18
2019-06-10T01:35:15.733Z,19.10
2019-06-10T01:36:16.470Z,19.04
2019-06-10T01:37:14.831Z,19.08
2019-06-10T01:38:16.318Z,19.11
2019-06-10T01:39:15.201Z,19.23
2019-06-10T01:40:16.332Z,19.28
2019-06-10T01:41:15.257Z,19.21
2019-06-10T01:42:14.411Z,19.23
2019-06-10T01:43:16.764Z,19.26
2019-06-10T01:44:14.694Z,19.29
2019-06-10T01:45:14.670Z,19.21
2019-06-10T01:46:14.722Z,19.21
2019-06-10T01:47:14.658Z,18.94
2019-06-10T01:48:15.277Z,18.84
2019-06-10T01:49:14.847Z,18.85
2019-06-10T01:50:15.933Z,18.84
2019-06-10T01:51:14.558Z,18.92
2019-06-10T01:52:15.086Z,18.94
2019-06-10T01:53:15.664Z,18.99
2019-06-10T01:54:14.938Z,19.07
2019-06-10T01:55:14.977Z,18.98
2019-06-10T01:56:15.177Z,18.91
2019-06-10T01:57:14.184Z,18.81
2019-06-10T01:58:14.426Z,18.92
2019-06-10T01:59:15.090Z,18.94
2019-06-10T02:00:17.173Z,18.91
2019-06-10T02:01:15.443Z,18.87
2019-06-10T02:02:15.727Z,18.69
2019-06-10T02:03:16.243Z,18.69
2019-06-10T02:04:14.899Z,18.67
2019-06-10T02:05:14.545Z,18.66
2019-06-10T02:06:16.012Z,18.57
2019-06-10T02:07:15.528Z,18.54
2019-06-10T02:08:14.526Z,18.58
2019-06-10T02:09:15.043Z,18.65
2019-06-10T02:10:15.621Z,18.69
2019-06-10T02:11:14.413Z,18.75
2019-06-10T02:12:14.569Z,18.80
2019-06-10T02:13:13.333Z,18.73
2019-06-10T02:14:14.686Z,18.75
2019-06-10T02:15:12.584Z,18.76
2019-06-10T02:16:14.101Z,18.70
2019-06-10T02:17:13.078Z,18.69
2019-06-10T02:18:13.306Z,18.72
2019-06-10T02:19:13.982Z,18.72
2019-06-10T02:20:14.867Z,18.65
2019-06-10T02:21:14.541Z,18.57
2019-06-10T02:22:13.657Z,18.52
2019-06-10T02:23:13.930Z,18.52
2019-06-10T02:24:12.761Z,18.41
2019-06-10T02:25:11.960Z,18.41
2019-06-10T02:26:11.894Z,18.54
2019-06-10T02:27:12.911Z,18.51
2019-06-10T02:28:13.044Z,18.65
2019-06-10T02:29:12.506Z,18.69
2019-06-10T02:30:18.982Z,18.63
2019-06-10T02:31:14.248Z,18.60
2019-06-10T02:32:14.580Z,18.52
2019-06-10T02:33:12.744Z,18.63
2019-06-10T02:34:13.284Z,18.54
2019-06-10T02:35:15.494Z,18.62
2019-06-10T02:36:13.910Z,18.60
2019-06-10T02:37:13.627Z,18.52
2019-06-10T02:38:10.038Z,18.57
2019-06-10T02:39:09.982Z,18.54
2019-06-10T02:40:09.907Z,18.55
2019-06-10T02:41:09.839Z,18.60
2019-06-10T02:42:13.111Z,18.60
2019-06-10T02:43:09.698Z,18.60
2019-06-10T02:44:09.633Z,18.52
2019-06-10T02:45:09.567Z,18.54
2019-06-10T02:46:09.495Z,18.47
2019-06-10T02:47:09.420Z,18.36
2019-06-10T02:48:09.353Z,18.26
2019-06-10T02:49:23.297Z,18.26
2019-06-10T02:50:09.524Z,18.26
2019-06-10T02:51:09.148Z,18.26
2019-06-10T02:52:09.077Z,18.35
2019-06-10T02:53:09.009Z,18.26
2019-06-10T02:54:08.943Z,18.25
2019-06-10T02:55:08.872Z,18.18
2019-06-10T02:56:08.806Z,18.25
2019-06-10T02:57:08.736Z,18.18
2019-06-10T02:58:08.662Z,18.14
2019-06-10T02:59:08.600Z,18.12
2019-06-10T03:00:17.013Z,18.15
2019-06-10T03:01:08.461Z,18.15
2019-06-10T03:02:08.390Z,18.10
2019-06-10T03:03:08.334Z,18.05
2019-06-10T03:04:08.250Z,18.08
2019-06-10T03:05:08.180Z,18.11
2019-06-10T03:06:08.931Z,18.12
2019-06-10T03:07:08.050Z,18.21
2019-06-10T03:08:07.980Z,18.30
2019-06-10T03:09:07.918Z,18.37
2019-06-10T03:10:07.842Z,18.35
2019-06-10T03:11:07.772Z,18.45
2019-06-10T03:12:07.704Z,18.55
2019-06-10T03:13:07.633Z,18.52
2019-06-10T03:14:07.561Z,18.50
2019-06-10T03:15:07.493Z,18.55
2019-06-10T03:16:07.430Z,18.52
2019-06-10T03:17:07.357Z,18.52
2019-06-10T03:18:07.289Z,18.23
2019-06-10T03:19:07.240Z,18.20
2019-06-10T03:20:07.147Z,18.18
2019-06-10T03:21:07.083Z,18.21
2019-06-10T03:22:07.014Z,18.27
2019-06-10T03:23:06.946Z,18.12
2019-06-10T03:24:06.876Z,18.23
2019-06-10T03:25:06.816Z,18.26
2019-06-10T03:26:06.735Z,18.29
2019-06-10T03:27:06.671Z,18.37
2019-06-10T03:28:06.600Z,18.20
2019-06-10T03:29:06.533Z,18.25
2019-06-10T03:30:15.821Z,18.14
2019-06-10T03:31:06.516Z,18.23
2019-06-10T03:32:06.347Z,18.17
2019-06-10T03:33:06.261Z,18.08
2019-06-10T03:34:06.190Z,18.11
2019-06-10T03:35:06.189Z,18.11
2019-06-10T03:36:06.050Z,18.17
2019-06-10T03:37:05.982Z,18.25
2019-06-10T03:38:05.915Z,18.29
2019-06-10T03:39:05.845Z,18.25
2019-06-10T03:40:05.771Z,18.07
2019-06-10T03:41:05.705Z,18.03
2019-06-10T03:42:05.641Z,18.00
2019-06-10T03:43:05.570Z,18.11
2019-06-10T03:44:05.504Z,18.15
2019-06-10T03:45:08.296Z,18.25
2019-06-10T03:46:05.359Z,18.30
2019-06-10T03:47:05.291Z,18.30
2019-06-10T03:48:05.226Z,18.35
2019-06-10T03:49:05.158Z,18.33
2019-06-10T03:50:05.091Z,18.30
2019-06-10T03:51:05.023Z,18.15
2019-06-10T03:52:04.950Z,18.02
2019-06-10T03:53:04.877Z,18.14
2019-06-10T03:54:04.813Z,18.08
2019-06-10T03:55:04.741Z,18.11
2019-06-10T03:56:04.673Z,18.02
2019-06-10T03:57:04.605Z,18.00
2019-06-10T03:58:04.539Z,18.03
2019-06-10T03:59:04.468Z,17.93
2019-06-10T04:00:10.655Z,17.97
2019-06-10T04:01:04.327Z,17.90
2019-06-10T04:02:04.262Z,17.96
2019-06-10T04:03:04.199Z,17.99
2019-06-10T04:04:04.124Z,17.95
2019-06-10T04:05:04.055Z,17.92
2019-06-10T04:06:03.992Z,17.92
2019-06-10T04:07:04.134Z,17.87
2019-06-10T04:08:03.850Z,17.79
2019-06-10T04:09:03.778Z,17.87
2019-06-10T04:10:03.703Z,17.93
2019-06-10T04:11:03.633Z,18.00
2019-06-10T04:12:03.570Z,18.08
2019-06-10T04:13:03.500Z,18.08
2019-06-10T04:14:03.427Z,18.03
2019-06-10T04:15:03.381Z,17.96
2019-06-10T04:16:03.302Z,17.95
2019-06-10T04:17:03.226Z,17.96
2019-06-10T04:18:03.909Z,17.99
2019-06-10T04:19:03.086Z,17.89
2019-06-10T04:20:11.466Z,17.95
2019-06-10T04:22:36.984Z,17.90
2019-06-10T04:23:36.878Z,17.89
2019-06-10T04:25:32.463Z,18.02
2019-06-10T04:26:32.745Z,18.05
2019-06-10T04:28:28.694Z,18.20
2019-06-10T04:29:27.734Z,18.02
2019-06-10T04:31:23.769Z,18.07
2019-06-10T04:32:23.162Z,18.02
2019-06-10T04:34:18.323Z,17.89
2019-06-10T04:35:18.330Z,17.87
2019-06-10T04:37:12.900Z,17.79
2019-06-10T04:38:13.195Z,17.78
2019-06-10T04:40:08.113Z,17.79
2019-06-10T04:41:08.015Z,17.86
2019-06-10T04:43:03.286Z,17.75
2019-06-10T04:44:03.201Z,17.68
2019-06-10T04:45:58.490Z,17.62
2019-06-10T04:46:58.387Z,17.54
2019-06-10T04:48:53.662Z,17.63
2019-06-10T04:49:53.589Z,17.75
2019-06-10T04:51:48.878Z,17.81
2019-06-10T04:52:48.775Z,17.89
2019-06-10T04:54:44.041Z,17.84
2019-06-10T04:55:43.954Z,17.82
2019-06-10T04:57:39.242Z,17.81
2019-06-10T04:58:39.145Z,17.79
2019-06-10T05:00:34.424Z,17.86
2019-06-10T05:01:34.338Z,17.92
2019-06-10T05:03:29.649Z,17.96
2019-06-10T05:04:30.590Z,17.82
2019-06-10T05:06:26.856Z,17.90
2019-06-10T05:07:27.069Z,17.89
2019-06-10T05:09:23.747Z,17.90
2019-06-10T05:10:21.134Z,17.93
2019-06-10T05:12:15.176Z,17.90
2019-06-10T05:13:15.090Z,17.99
2019-06-10T05:15:12.481Z,18.03
2019-06-10T05:16:12.519Z,18.10
2019-06-10T05:18:05.574Z,18.15
2019-06-10T05:19:05.490Z,18.14
2019-06-10T05:21:02.872Z,18.21
2019-06-10T05:22:02.961Z,18.21
2019-06-10T05:23:55.941Z,18.14
2019-06-10T05:24:55.866Z,17.93
2019-06-10T05:26:52.666Z,17.78
2019-06-10T05:27:52.291Z,17.78
2019-06-10T05:29:47.166Z,17.79
2019-06-10T05:30:47.081Z,17.90
2019-06-10T05:32:43.398Z,18.15
2019-06-10T05:33:43.157Z,18.17
2019-06-10T05:34:43.732Z,18.20
2019-06-10T05:35:43.024Z,18.21
2019-06-10T05:36:43.756Z,18.32
2019-06-10T05:37:42.888Z,18.42
2019-06-10T05:38:43.621Z,18.44
2019-06-10T05:39:42.750Z,18.51
2019-06-10T05:40:42.852Z,18.60
2019-06-10T05:41:43.302Z,18.50
2019-06-10T05:42:42.756Z,18.48
2019-06-10T05:43:43.026Z,18.57
2019-06-10T05:44:43.090Z,18.42
2019-06-10T05:45:42.487Z,18.42
2019-06-10T05:46:43.544Z,18.45
2019-06-10T05:47:42.837Z,18.25
2019-06-10T05:48:43.706Z,18.33
2019-06-10T05:49:43.114Z,18.27
2019-06-10T05:50:42.800Z,18.30
2019-06-10T05:51:42.507Z,18.29
2019-06-10T05:52:42.765Z,18.23
2019-06-10T05:53:42.632Z,18.23
2019-06-10T05:54:43.091Z,18.21
2019-06-10T05:55:42.749Z,18.30
2019-06-10T05:56:43.283Z,18.36
2019-06-10T05:57:42.878Z,18.51
2019-06-10T05:58:43.611Z,18.39
2019-06-10T05:59:43.262Z,18.45
2019-06-10T06:00:42.857Z,18.36
2019-06-10T06:01:43.096Z,18.21
2019-06-10T06:02:43.262Z,18.36
2019-06-10T06:03:43.635Z,18.33
2019-06-10T06:04:42.852Z,18.35
2019-06-10T06:05:43.249Z,18.18
2019-06-10T06:06:42.530Z,18.35
2019-06-10T06:07:42.322Z,18.47
2019-06-10T06:08:42.945Z,18.33
2019-06-10T06:09:42.723Z,18.30
2019-06-10T06:10:42.364Z,18.42
2019-06-10T06:11:42.843Z,18.39
2019-06-10T06:12:42.440Z,18.29
2019-06-10T06:13:42.975Z,18.37
2019-06-10T06:14:42.458Z,18.52
2019-06-10T06:15:42.451Z,18.58
2019-06-10T06:16:42.984Z,18.75
2019-06-10T06:17:40.164Z,18.73
2019-06-10T06:18:42.247Z,18.62
2019-06-10T06:19:40.035Z,18.73
2019-06-10T06:20:39.954Z,18.95
2019-06-10T06:21:44.525Z,18.82
2019-06-10T06:22:39.827Z,18.63
2019-06-10T06:23:39.760Z,18.55
2019-06-10T06:24:39.684Z,18.66
2019-06-10T06:25:43.479Z,18.75
2019-06-10T06:26:39.855Z,18.72
2019-06-10T06:27:41.944Z,18.81
2019-06-10T06:28:39.413Z,18.99
2019-06-10T06:29:39.348Z,18.88
2019-06-10T06:30:39.280Z,18.99
2019-06-10T06:31:39.342Z,19.07
2019-06-10T06:32:39.150Z,19.22
2019-06-10T06:33:39.934Z,19.40
2019-06-10T06:34:39.014Z,19.39
2019-06-10T06:35:42.827Z,19.51
2019-06-10T06:36:38.888Z,19.41
2019-06-10T06:37:39.699Z,19.37
2019-06-10T06:38:38.761Z,19.43
2019-06-10T06:39:38.669Z,19.43
2019-06-10T06:40:38.932Z,19.39
2019-06-10T06:41:39.087Z,19.56
2019-06-10T06:42:38.472Z,19.56
2019-06-10T06:43:41.998Z,19.47
2019-06-10T06:44:39.495Z,19.50
2019-06-10T06:45:38.983Z,19.40
2019-06-10T06:46:39.612Z,19.40
2019-06-10T06:47:39.110Z,19.41
2019-06-10T06:48:40.301Z,19.21
2019-06-10T06:49:38.649Z,19.33
2019-06-10T06:50:57.257Z,19.23
2019-06-10T06:51:49.534Z,19.37
2019-06-10T06:53:12.598Z,19.25
2019-06-10T06:53:45.205Z,19.22
2019-06-10T06:54:38.146Z,19.02
2019-06-10T06:55:38.412Z,19.07
2019-06-10T06:56:38.982Z,19.11
2019-06-10T06:57:38.965Z,19.25
2019-06-10T06:58:38.663Z,19.51
2019-06-10T06:59:38.725Z,19.63
2019-06-10T07:00:53.994Z,19.61
2019-06-10T07:01:39.178Z,19.56
2019-06-10T07:02:37.586Z,19.77
2019-06-10T07:03:38.617Z,19.58
2019-06-10T07:04:37.514Z,19.66
2019-06-10T07:05:37.592Z,19.77
2019-06-10T07:06:37.439Z,19.47
2019-06-10T07:07:37.120Z,19.50
2019-06-10T07:08:38.109Z,19.62
2019-06-10T07:09:37.405Z,19.68
2019-06-10T07:10:37.373Z,19.77
2019-06-10T07:11:38.370Z,19.78
2019-06-10T07:12:37.870Z,19.94
2019-06-10T07:13:38.816Z,19.88
2019-06-10T07:14:38.819Z,19.95
2019-06-10T07:15:38.884Z,19.96
2019-06-10T07:16:38.981Z,20.06
2019-06-10T07:17:37.802Z,20.28
2019-06-10T07:18:40.939Z,20.33
2019-06-10T07:19:38.282Z,20.29
2019-06-10T07:20:37.817Z,20.24
2019-06-10T07:21:56.942Z,20.06
2019-06-10T07:22:36.985Z,20.01
2019-06-10T07:23:38.015Z,19.98
2019-06-10T07:24:37.897Z,20.11
2019-06-10T07:25:37.354Z,20.14
2019-06-10T07:26:40.511Z,20.26
2019-06-10T07:27:37.536Z,20.38
2019-06-10T07:28:37.509Z,20.28
2019-06-10T07:29:37.410Z,20.14
2019-06-10T07:30:38.821Z,20.02
2019-06-10T07:31:36.544Z,19.99
2019-06-10T07:32:37.364Z,20.06
2019-06-10T07:33:38.981Z,20.02
2019-06-10T07:34:36.734Z,20.11
2019-06-10T07:35:36.079Z,20.01
2019-06-10T07:36:35.641Z,20.02
2019-06-10T07:37:36.204Z,20.03
2019-06-10T07:38:37.252Z,19.99
2019-06-10T07:39:36.451Z,19.87
2019-06-10T07:40:36.181Z,19.92
2019-06-10T07:41:35.737Z,19.81
2019-06-10T07:42:34.915Z,19.92
2019-06-10T07:43:38.287Z,20.05
2019-06-10T07:44:34.902Z,19.69
2019-06-10T07:45:37.757Z,19.73
2019-06-10T07:46:36.048Z,19.86
2019-06-10T07:47:35.271Z,19.99
2019-06-10T07:48:36.516Z,20.01
2019-06-10T07:49:35.336Z,20.05
2019-06-10T07:50:34.976Z,20.18
2019-06-10T07:51:34.657Z,20.10
2019-06-10T07:52:34.712Z,20.03
2019-06-10T07:53:35.239Z,20.06
2019-06-10T07:54:34.782Z,19.99
2019-06-10T07:55:35.025Z,20.10
2019-06-10T07:56:38.672Z,19.98
2019-06-10T07:57:34.746Z,19.95
2019-06-10T07:58:36.435Z,20.01
2019-06-10T07:59:33.857Z,20.01
2019-06-10T08:00:34.873Z,20.01
2019-06-10T08:01:34.726Z,20.06
2019-06-10T08:02:34.081Z,20.14
2019-06-10T08:03:34.958Z,20.11
2019-06-10T08:04:33.663Z,20.26
2019-06-10T08:05:34.185Z,20.29
2019-06-10T08:06:34.713Z,20.33
2019-06-10T08:07:33.412Z,20.23
2019-06-10T08:08:33.094Z,20.31
2019-06-10T08:09:35.283Z,20.35
2019-06-10T08:10:32.850Z,20.33
2019-06-10T08:11:33.221Z,20.18
2019-06-10T08:12:32.644Z,20.10
2019-06-10T08:13:32.616Z,20.10
2019-06-10T08:14:33.059Z,20.28
2019-06-10T08:15:32.611Z,20.36
2019-06-10T08:16:32.707Z,20.24
2019-06-10T08:17:32.838Z,20.32
2019-06-10T08:18:38.146Z,20.35
2019-06-10T08:19:37.799Z,20.48
2019-06-10T08:20:32.619Z,20.51
2019-06-10T08:21:32.323Z,20.51
2019-06-10T08:22:37.230Z,20.58
2019-06-10T08:23:32.812Z,20.62
2019-06-10T08:24:32.926Z,20.70
2019-06-10T08:25:32.770Z,20.52
2019-06-10T08:26:32.416Z,20.57
2019-06-10T08:27:33.565Z,20.43
2019-06-10T08:28:33.268Z,20.52
2019-06-10T08:29:32.981Z,20.58
2019-06-10T08:30:32.891Z,20.69
2019-06-10T08:31:33.285Z,20.67
2019-06-10T08:32:33.381Z,20.64
2019-06-10T08:33:33.174Z,20.64
2019-06-10T08:34:32.935Z,20.74
2019-06-10T08:35:39.403Z,20.64
2019-06-10T08:36:33.125Z,20.73
2019-06-10T08:37:33.053Z,20.61
2019-06-10T08:38:32.990Z,20.48
2019-06-10T08:39:33.300Z,20.72
2019-06-10T08:40:32.601Z,20.77
2019-06-10T08:41:32.253Z,20.77
2019-06-10T08:42:32.436Z,20.76
2019-06-10T08:43:32.884Z,20.76
2019-06-10T08:44:32.591Z,20.73
2019-06-10T08:45:30.289Z,20.67
2019-06-10T08:46:30.225Z,20.62
2019-06-10T08:47:32.467Z,20.76
2019-06-10T08:48:30.088Z,20.70
2019-06-10T08:49:32.565Z,20.80
2019-06-10T08:50:29.958Z,20.58
2019-06-10T08:51:32.317Z,20.69
2019-06-10T08:52:29.825Z,20.79
2019-06-10T08:53:29.759Z,20.77
2019-06-10T08:54:32.255Z,20.87
2019-06-10T08:55:29.636Z,20.95
2019-06-10T08:56:29.565Z,20.76
2019-06-10T08:57:29.507Z,20.89
2019-06-10T08:58:29.429Z,20.52
2019-06-10T08:59:29.368Z,20.66
2019-06-10T09:00:29.300Z,20.73
2019-06-10T09:01:29.243Z,20.52
2019-06-10T09:02:29.173Z,20.61
2019-06-10T09:03:29.099Z,20.74
2019-06-10T09:04:29.636Z,20.84
2019-06-10T09:05:28.968Z,20.91
2019-06-10T09:06:28.902Z,20.67
2019-06-10T09:07:28.852Z,20.67
2019-06-10T09:08:28.769Z,20.66
2019-06-10T09:09:28.701Z,20.82
2019-06-10T09:10:28.638Z,20.69
2019-06-10T09:11:28.578Z,20.64
2019-06-10T09:12:33.125Z,20.85
2019-06-10T09:13:28.435Z,20.88
2019-06-10T09:14:28.371Z,20.95
2019-06-10T09:15:28.308Z,21.13
2019-06-10T09:16:28.246Z,21.19
2019-06-10T09:17:28.183Z,21.27
2019-06-10T09:18:28.117Z,21.29
2019-06-10T09:19:28.045Z,21.19
2019-06-10T09:20:27.981Z,21.25
2019-06-10T09:21:27.931Z,21.25
2019-06-10T09:22:27.845Z,21.22
2019-06-10T09:23:27.785Z,21.32
2019-06-10T09:24:27.722Z,21.29
2019-06-10T09:25:27.646Z,21.28
2019-06-10T09:26:27.594Z,21.35
2019-06-10T09:27:27.535Z,21.24
2019-06-10T09:28:27.448Z,21.31
2019-06-10T09:29:27.389Z,21.34
2019-06-10T09:30:27.324Z,21.37
2019-06-10T09:31:27.259Z,21.44
2019-06-10T09:32:27.185Z,21.44
2019-06-10T09:33:27.116Z,21.46
2019-06-10T09:34:27.073Z,21.58
2019-06-10T09:35:26.993Z,21.58
2019-06-10T09:36:26.936Z,21.67
2019-06-10T09:37:26.857Z,21.67
2019-06-10T09:38:26.798Z,21.61
2019-06-10T09:39:26.725Z,21.46
2019-06-10T09:40:26.659Z,21.46
2019-06-10T09:41:36.439Z,21.49
2019-06-10T09:42:26.527Z,21.35
2019-06-10T09:43:26.464Z,21.17
2019-06-10T09:44:26.400Z,21.28
2019-06-10T09:45:26.331Z,21.32
2019-06-10T09:46:26.266Z,21.32
2019-06-10T09:47:26.198Z,21.27
2019-06-10T09:48:26.132Z,21.16
2019-06-10T09:49:26.068Z,21.24
2019-06-10T09:50:26.003Z,21.27
2019-06-10T09:51:25.938Z,20.94
2019-06-10T09:52:25.873Z,21.12
2019-06-10T09:53:33.358Z,21.07
2019-06-10T09:54:25.735Z,21.19
2019-06-10T09:55:25.675Z,21.01
2019-06-10T09:56:25.612Z,21.07
2019-06-10T09:57:25.544Z,21.14
2019-06-10T09:58:25.484Z,21.09
2019-06-10T09:59:25.417Z,21.16
2019-06-10T10:00:25.347Z,21.28
2019-06-10T10:01:25.278Z,21.25
2019-06-10T10:02:25.216Z,21.17
2019-06-10T10:03:25.147Z,20.94
2019-06-10T10:04:25.078Z,20.91
2019-06-10T10:05:25.017Z,20.89
2019-06-10T10:06:24.950Z,21.01
2019-06-10T10:07:24.884Z,21.07
2019-06-10T10:08:24.818Z,21.19
2019-06-10T10:09:24.766Z,21.28
2019-06-10T10:10:24.686Z,21.34
2019-06-10T10:11:28.379Z,21.46
2019-06-10T10:12:24.555Z,21.43
2019-06-10T10:13:24.490Z,21.34
2019-06-10T10:14:24.424Z,21.34
2019-06-10T10:15:30.949Z,21.37
2019-06-10T10:16:24.289Z,21.49
2019-06-10T10:17:24.224Z,21.42
2019-06-10T10:18:24.158Z,21.32
2019-06-10T10:19:24.089Z,21.31
2019-06-10T10:20:24.027Z,21.32
2019-06-10T10:21:23.960Z,21.40
2019-06-10T10:22:23.890Z,21.37
2019-06-10T10:23:23.861Z,21.43
2019-06-10T10:24:23.763Z,21.43
2019-06-10T10:25:23.698Z,21.47
2019-06-10T10:26:23.630Z,21.50
2019-06-10T10:27:23.565Z,21.46
2019-06-10T10:28:26.357Z,21.44
2019-06-10T10:29:23.433Z,21.44
2019-06-10T10:30:24.565Z,21.49
2019-06-10T10:31:24.094Z,21.49
2019-06-10T10:32:23.346Z,21.32
2019-06-10T10:33:28.910Z,21.34
2019-06-10T10:34:23.764Z,21.44
2019-06-10T10:35:24.269Z,21.54
2019-06-10T10:36:22.972Z,21.56
2019-06-10T10:37:23.050Z,21.53
2019-06-10T10:38:23.113Z,21.46
2019-06-10T10:39:24.670Z,21.40
2019-06-10T10:40:23.346Z,21.40
2019-06-10T10:41:23.429Z,21.50
2019-06-10T10:42:23.601Z,21.52
2019-06-10T10:43:32.052Z,21.59
2019-06-10T10:44:22.442Z,21.72
2019-06-10T10:45:22.776Z,21.65
2019-06-10T10:46:23.091Z,21.80
2019-06-10T10:47:25.187Z,21.79
2019-06-10T10:48:22.666Z,21.71
2019-06-10T10:49:22.372Z,21.54
2019-06-10T10:50:22.575Z,21.56
2019-06-10T10:51:23.070Z,21.58
2019-06-10T10:52:22.459Z,21.72
2019-06-10T10:53:23.847Z,21.64
2019-06-10T10:54:32.164Z,21.58
2019-06-10T10:55:22.295Z,21.50
2019-06-10T10:56:22.308Z,21.61
2019-06-10T10:57:23.149Z,21.56
2019-06-10T10:58:22.925Z,21.65
2019-06-10T10:59:22.017Z,21.69
2019-06-10T11:00:22.647Z,21.96
2019-06-10T11:01:23.646Z,22.02
2019-06-10T11:02:22.735Z,21.84
2019-06-10T11:03:22.857Z,21.84
2019-06-10T11:04:23.158Z,21.92
2019-06-10T11:05:23.154Z,21.79
2019-06-10T11:06:23.202Z,21.40
2019-06-10T11:07:22.354Z,21.35
2019-06-10T11:08:22.789Z,21.59
2019-06-10T11:09:22.383Z,21.53
2019-06-10T11:10:23.054Z,21.53
2019-06-10T11:11:22.829Z,21.68
2019-06-10T11:12:22.945Z,21.72
2019-06-10T11:13:22.266Z,21.62
2019-06-10T11:14:22.882Z,21.64
2019-06-10T11:15:20.397Z,21.75
2019-06-10T11:16:22.371Z,21.67
2019-06-10T11:17:22.195Z,21.69
2019-06-10T11:18:22.341Z,21.65
2019-06-10T11:19:22.115Z,21.64
2019-06-10T11:20:22.461Z,21.53
2019-06-10T11:21:22.710Z,21.42
2019-06-10T11:22:22.900Z,21.44
2019-06-10T11:23:19.871Z,21.52
2019-06-10T11:24:33.565Z,21.58
2019-06-10T11:25:19.734Z,21.54
2019-06-10T11:26:19.666Z,21.58
2019-06-10T11:27:19.604Z,21.72
2019-06-10T17:03:23.302Z,23.00
2019-06-10T17:04:21.718Z,23.02
2019-06-10T17:06:15.455Z,22.98
2019-06-10T17:07:15.371Z,22.92
2019-06-10T17:09:10.632Z,23.04
2019-06-10T17:10:12.567Z,23.04
2019-06-10T17:12:06.635Z,23.02
2019-06-10T17:13:06.568Z,23.04
2019-06-10T17:15:03.475Z,22.90
2019-06-10T17:16:03.501Z,22.80
2019-06-10T17:17:56.986Z,22.72
2019-06-10T17:18:56.909Z,22.68
2019-06-10T17:20:53.508Z,22.46
2019-06-10T17:21:52.759Z,22.31
2019-06-10T17:23:47.381Z,22.42
2019-06-10T17:24:47.294Z,22.46
2019-06-10T17:26:42.748Z,22.42
2019-06-10T17:27:42.473Z,22.30
2019-06-10T17:29:37.754Z,22.30
2019-06-10T17:30:37.672Z,22.37
2019-06-10T17:32:33.015Z,22.52
2019-06-10T17:33:35.679Z,22.54
2019-06-10T17:35:28.634Z,22.43
2019-06-10T17:36:30.851Z,22.37
2019-06-10T17:38:24.629Z,22.10
2019-06-10T17:39:25.094Z,22.10
2019-06-10T17:41:18.550Z,22.14
2019-06-10T17:42:18.469Z,22.31
2019-06-10T17:44:13.776Z,22.14
2019-06-10T17:45:13.676Z,22.24
2019-06-10T17:47:08.976Z,22.09
2019-06-10T17:48:08.894Z,22.09
2019-06-10T17:50:04.185Z,22.10
2019-06-10T17:51:04.119Z,22.10
2019-06-10T17:52:59.385Z,21.99
2019-06-10T17:53:59.281Z,21.88
2019-06-10T17:55:54.589Z,21.91
2019-06-10T17:56:54.475Z,21.92
2019-06-10T17:58:54.938Z,21.94
2019-06-10T17:59:49.669Z,21.92
2019-06-10T18:01:44.973Z,21.80
2019-06-10T18:02:44.868Z,21.67
2019-06-10T18:04:42.073Z,21.46
2019-06-10T18:05:42.394Z,21.34
2019-06-10T18:07:35.795Z,21.43
2019-06-10T18:08:36.600Z,21.49
2019-06-10T18:10:33.126Z,21.38
2019-06-10T18:11:32.831Z,21.38
2019-06-10T18:13:26.264Z,21.22
2019-06-10T18:14:25.933Z,21.10
2019-06-10T18:16:22.809Z,20.99
2019-06-10T18:17:20.856Z,21.01
2019-06-10T18:19:16.159Z,20.98
2019-06-10T18:20:16.059Z,20.94
2019-06-10T18:22:14.838Z,20.94
2019-06-10T18:23:14.753Z,20.87
2019-06-10T18:24:14.694Z,20.91
2019-06-10T18:25:14.618Z,20.87
2019-06-10T18:26:14.554Z,20.80
2019-06-10T18:27:14.488Z,20.67
2019-06-10T18:28:14.432Z,20.64
2019-06-10T18:29:14.353Z,20.62
2019-06-10T18:30:14.585Z,20.66
2019-06-10T18:31:14.227Z,20.66
2019-06-10T18:32:14.155Z,20.62
2019-06-10T18:33:14.086Z,20.61
2019-06-10T18:34:14.022Z,20.70
2019-06-10T18:35:14.381Z,20.79
2019-06-10T18:36:13.886Z,20.67
2019-06-10T18:37:13.823Z,20.67
2019-06-10T18:38:13.754Z,20.54
2019-06-10T18:39:13.683Z,20.59
2019-06-10T18:40:14.613Z,20.59
2019-06-10T18:41:13.553Z,20.51
2019-06-10T18:42:13.486Z,20.41
2019-06-10T18:43:13.423Z,20.29
2019-06-10T18:44:22.609Z,20.06
2019-06-10T18:45:13.283Z,20.06
2019-06-10T18:46:13.220Z,20.18
2019-06-10T18:47:13.488Z,20.18
2019-06-10T18:48:13.082Z,20.17
2019-06-10T18:49:13.485Z,20.14
2019-06-10T18:50:12.953Z,20.10
2019-06-10T18:51:12.879Z,19.99
2019-06-10T18:52:12.909Z,20.10
2019-06-10T18:53:13.022Z,20.08
2019-06-10T18:54:12.895Z,20.11
2019-06-10T18:55:12.615Z,20.11
2019-06-10T18:56:13.008Z,19.95
2019-06-10T18:57:12.483Z,19.99
2019-06-10T18:58:12.410Z,19.96
2019-06-10T18:59:19.805Z,20.05
2019-06-10T19:00:14.678Z,20.10
2019-06-10T19:01:12.564Z,20.21
2019-06-10T19:02:12.324Z,20.41
2019-06-10T19:03:15.889Z,20.35
2019-06-10T19:04:13.030Z,20.35
2019-06-10T19:05:13.080Z,20.24
2019-06-10T19:06:12.518Z,20.21
2019-06-10T19:07:11.803Z,20.14
2019-06-10T19:08:11.746Z,20.14
2019-06-10T19:09:12.833Z,20.14
2019-06-10T19:10:11.602Z,20.03
2019-06-10T19:11:11.537Z,20.10
2019-06-10T19:12:13.430Z,20.11
2019-06-10T19:13:13.012Z,20.14
2019-06-10T19:14:12.819Z,20.13
2019-06-10T19:15:12.071Z,20.11